Time;durP1;ratioP1;P1;durP2;ratioP2;P2;SDS_P1;SDS_P2;PMS_P1;PMS_P2;Temp;Humidity;BMP_temperature;BMP_pressure;BME280_temperature;BME280_humidity;BME280_pressure;Samples;Min_cycle;Max_cycle;Signal;HPM_P1;HPM_P2
2023/05/06 00:02:04;;;;;;;5.27;2.83;;;;;;;8.84;59.85;101053.91;5007923;28;20270;-82
2023/05/06 00:04:33;;;;;;;7.57;4.33;;;;;;;8.79;58.45;101055.53;5026728;28;20210;-82
2023/05/06 00:07:05;;;;;;;5.87;3.47;;;;;;;8.73;58.45;101047.75;5023064;28;20632;-81
2023/05/06 00:09:36;;;;;;;6.10;3.27;;;;;;;8.64;57.00;101033.97;5012411;28;20657;-82
2023/05/06 00:12:06;;;;;;;4.53;3.20;;;;;;;8.65;56.30;101055.38;5004435;28;20194;-80
2023/05/06 00:14:37;;;;;;;5.27;3.83;;;;;;;8.60;55.85;101039.06;4994807;28;20241;-81
2023/05/06 00:17:10;;;;;;;4.27;3.07;;;;;;;8.57;56.01;101044.16;5009799;28;20195;-82
2023/05/06 00:19:39;;;;;;;4.03;2.60;;;;;;;8.51;54.93;101050.09;5011337;28;20626;-80
2023/05/06 00:22:08;;;;;;;7.07;3.00;;;;;;;8.41;54.65;101037.94;5029705;28;20210;-81
2023/05/06 00:24:40;;;;;;;4.20;3.17;;;;;;;8.32;55.03;101030.97;5012664;28;20577;-81
2023/05/06 00:27:10;;;;;;;4.03;2.70;;;;;;;8.36;54.62;101045.56;5017983;28;20296;-82
2023/05/06 00:29:44;;;;;;;4.40;3.10;;;;;;;8.25;54.59;101029.16;5026139;28;20229;-81
2023/05/06 00:32:14;;;;;;;4.53;2.93;;;;;;;8.31;54.24;101041.19;5024540;28;20198;-83
2023/05/06 00:34:43;;;;;;;4.53;3.13;;;;;;;8.27;53.68;101045.44;5014195;28;20234;-81
2023/05/06 00:37:15;;;;;;;4.57;2.87;;;;;;;8.22;53.72;101047.94;5020919;28;20234;-83
2023/05/06 00:39:43;;;;;;;8.10;2.97;;;;;;;8.15;53.67;101038.44;5019034;28;20183;-81
2023/05/06 00:42:18;;;;;;;3.33;2.87;;;;;;;8.10;52.83;101042.66;5024048;28;20226;-81
2023/05/06 00:44:49;;;;;;;3.13;2.63;;;;;;;8.04;53.35;101063.06;5018365;28;20207;-81
2023/05/06 00:47:24;;;;;;;3.77;2.60;;;;;;;7.90;53.03;101038.91;4997101;28;20573;-82
2023/05/06 00:49:53;;;;;;;5.27;2.90;;;;;;;7.94;52.78;101050.94;5014924;28;20224;-82
2023/05/06 00:52:22;;;;;;;5.97;2.93;;;;;;;7.88;52.81;101040.56;5013859;28;20206;-79
2023/05/06 00:54:50;;;;;;;5.73;2.80;;;;;;;7.86;52.31;101039.69;5015104;28;20238;-81
2023/05/06 00:57:22;;;;;;;4.57;2.77;;;;;;;7.82;52.53;101056.75;5017778;28;20210;-81
2023/05/06 00:59:51;;;;;;;3.50;2.40;;;;;;;7.77;52.59;101037.88;5016911;28;20195;-80
2023/05/06 01:02:21;;;;;;;7.77;2.83;;;;;;;7.76;52.48;101048.94;5016148;28;20230;-81
2023/05/06 01:04:55;;;;;;;3.90;3.00;;;;;;;7.76;52.35;101054.06;5025062;28;20623;-82
2023/05/06 01:07:35;;;;;;;5.23;3.53;;;;;;;7.59;52.07;101038.44;5020231;28;20239;-83
2023/05/06 01:10:22;;;;;;;6.57;4.00;;;;;;;7.64;52.54;101054.75;5022442;28;20202;-82
2023/05/06 01:13:01;;;;;;;5.97;3.90;;;;;;;7.62;52.04;101059.00;5012943;28;20659;-81
2023/05/06 01:15:36;;;;;;;4.53;4.00;;;;;;;7.58;51.95;101057.19;5022776;28;20215;-80
2023/05/06 01:18:10;;;;;;;6.93;4.60;;;;;;;7.50;52.15;101059.63;5015120;28;20211;-80
2023/05/06 01:20:43;;;;;;;4.53;3.33;;;;;;;7.53;52.01;101074.22;5020463;28;20312;-82
2023/05/06 01:23:15;;;;;;;6.77;3.80;;;;;;;7.47;51.71;101057.03;5013664;28;20222;-81
2023/05/06 01:25:46;;;;;;;5.00;3.10;;;;;;;7.44;51.89;101059.53;5022488;28;20203;-79
2023/05/06 01:28:15;;;;;;;6.00;2.60;;;;;;;7.41;52.20;101066.31;5033588;28;20586;-82
2023/05/06 01:30:49;;;;;;;3.70;3.00;;;;;;;7.35;52.13;101069.63;5022206;28;20294;-82
2023/05/06 01:33:27;;;;;;;5.40;2.63;;;;;;;7.35;52.40;101077.31;5004497;28;20203;-81
2023/05/06 01:36:06;;;;;;;6.60;2.73;;;;;;;7.36;52.45;101091.00;5024920;28;20210;-81
2023/05/06 01:38:46;;;;;;;6.33;3.23;;;;;;;7.35;52.00;101076.44;5022097;28;20207;-79
2023/05/06 01:41:17;;;;;;;4.63;2.77;;;;;;;7.33;52.22;101078.09;5011014;28;20258;-81
2023/05/06 01:43:51;;;;;;;2.80;2.23;;;;;;;7.23;51.69;101065.13;5021668;28;20231;-81
2023/05/06 01:46:21;;;;;;;5.57;2.80;;;;;;;7.28;52.38;101079.75;5017951;28;20219;-82
2023/05/06 01:48:55;;;;;;;6.40;3.10;;;;;;;7.26;52.44;101080.59;5019781;28;20211;-82
2023/05/06 01:51:23;;;;;;;5.13;2.57;;;;;;;7.25;52.02;101086.56;5014521;28;20266;-80
2023/05/06 01:53:57;;;;;;;2.93;2.30;;;;;;;7.24;51.58;101079.69;5025792;28;20655;-81
2023/05/06 01:56:29;;;;;;;5.87;2.90;;;;;;;7.15;52.35;101065.84;5015432;28;20208;-83
2023/05/06 01:58:58;;;;;;;4.70;2.50;;;;;;;7.18;52.00;101074.47;5009010;28;20697;-80
2023/05/06 02:01:31;;;;;;;4.27;2.67;;;;;;;7.13;52.01;101068.34;5021261;28;20203;-81
2023/05/06 02:04:03;;;;;;;5.63;2.93;;;;;;;7.14;51.83;101071.78;5011021;28;20219;-81
2023/05/06 02:06:32;;;;;;;5.03;2.77;;;;;;;7.11;51.90;101066.63;5013018;28;20215;-80
2023/05/06 02:09:04;;;;;;;3.07;2.33;;;;;;;6.97;52.06;101050.97;5017040;28;20251;-82
2023/05/06 02:11:34;;;;;;;4.37;2.70;;;;;;;6.95;51.96;101062.88;5026180;28;20211;-81
2023/05/06 02:14:03;;;;;;;2.37;2.17;;;;;;;7.04;51.99;101078.44;5023279;28;20222;-81
2023/05/06 02:16:33;;;;;;;5.57;2.87;;;;;;;6.96;51.86;101060.38;5027237;28;20215;-81
2023/05/06 02:19:02;;;;;;;6.83;2.47;;;;;;;6.98;52.18;101057.81;5020775;28;20215;-80
2023/05/06 02:21:30;;;;;;;4.23;2.30;;;;;;;6.94;52.48;101072.28;5022584;28;20235;-81
2023/05/06 02:24:11;;;;;;;4.30;2.13;;;;;;;6.89;52.54;101052.53;5019963;28;20212;-80
2023/05/06 02:26:42;;;;;;;4.70;2.33;;;;;;;6.85;52.17;101055.84;5020005;28;20203;-81
2023/05/06 02:29:11;;;;;;;2.37;2.00;;;;;;;6.79;52.03;101046.34;5023615;28;20203;-81
2023/05/06 02:31:39;;;;;;;4.13;2.60;;;;;;;6.84;52.37;101061.81;5012322;28;20202;-82
2023/05/06 02:34:09;;;;;;;4.23;2.47;;;;;;;6.81;52.34;101069.44;5020127;28;20222;-80
2023/05/06 02:36:38;;;;;;;5.23;2.50;;;;;;;6.76;52.11;101051.41;5016644;28;20570;-79
2023/05/06 02:39:11;;;;;;;6.30;2.50;;;;;;;6.66;52.05;101040.09;5014617;28;20208;-81
2023/05/06 02:41:40;;;;;;;2.50;2.20;;;;;;;6.69;52.23;101035.06;5009082;28;20612;-80
2023/05/06 02:44:08;;;;;;;4.83;2.40;;;;;;;6.71;52.22;101046.19;5014764;28;20248;-81
2023/05/06 02:46:36;;;;;;;4.27;2.20;;;;;;;6.69;52.18;101040.16;5020573;28;20214;-81
2023/05/06 02:49:04;;;;;;;3.03;2.03;;;;;;;6.68;52.80;101038.44;5019393;28;20211;-82
2023/05/06 02:51:34;;;;;;;3.17;2.37;;;;;;;6.64;52.18;101040.94;5025531;28;20737;-81
2023/05/06 02:54:04;;;;;;;6.07;2.30;;;;;;;6.59;52.65;101030.59;5020870;28;20203;-80
2023/05/06 02:56:35;;;;;;;3.67;2.70;;;;;;;6.59;52.58;101040.84;5020481;28;20685;-80
2023/05/06 02:59:04;;;;;;;3.27;2.60;;;;;;;6.58;52.37;101043.34;5020559;28;20683;-80
2023/05/06 03:01:33;;;;;;;4.77;2.50;;;;;;;6.63;52.66;101032.38;5015504;28;20331;-79
2023/05/06 03:04:02;;;;;;;4.80;2.77;;;;;;;6.58;52.53;101035.66;5017109;28;20245;-80
2023/05/06 03:06:32;;;;;;;5.67;2.40;;;;;;;6.63;52.64;101047.75;5005841;28;20238;-82
2023/05/06 03:09:00;;;;;;;5.80;2.50;;;;;;;6.57;52.57;101034.81;5017480;28;20222;-80
2023/05/06 03:11:30;;;;;;;3.50;2.63;;;;;;;6.58;52.94;101041.66;5018454;28;20222;-79
2023/05/06 03:14:00;;;;;;;3.60;2.37;;;;;;;6.61;53.31;101049.41;5016981;28;20199;-81
2023/05/06 03:16:29;;;;;;;2.83;2.30;;;;;;;6.64;53.12;101061.41;5029329;28;20633;-79
2023/05/06 03:18:57;;;;;;;4.57;2.23;;;;;;;6.68;53.10;101064.06;4998703;28;20208;-80
2023/05/06 03:21:28;;;;;;;3.67;2.57;;;;;;;6.75;52.92;101059.94;5019950;28;20246;-79
2023/05/06 03:23:57;;;;;;;3.47;2.50;;;;;;;6.84;52.75;101066.94;5022552;28;20195;-80
2023/05/06 03:26:26;;;;;;;3.47;2.30;;;;;;;6.89;52.54;101065.34;5027208;28;20625;-82
2023/05/06 03:28:54;;;;;;;3.07;1.93;;;;;;;6.87;52.25;101056.75;5018882;28;20294;-80
2023/05/06 03:31:26;;;;;;;4.23;2.00;;;;;;;6.93;52.76;101057.75;5019143;28;20196;-79
2023/05/06 03:33:55;;;;;;;5.33;2.70;;;;;;;6.99;52.88;101064.66;5028572;28;20214;-81
2023/05/06 03:36:24;;;;;;;3.50;1.90;;;;;;;6.93;52.92;101046.63;5027425;28;20229;-81
2023/05/06 03:38:52;;;;;;;3.37;2.50;;;;;;;7.05;52.85;101062.22;5000505;28;20200;-81
2023/05/06 03:41:24;;;;;;;3.30;2.20;;;;;;;7.07;52.69;101059.69;5016611;28;20223;-81
2023/05/06 03:43:54;;;;;;;3.90;2.27;;;;;;;7.14;52.48;101070.09;5016638;28;20637;-83
2023/05/06 03:46:25;;;;;;;2.57;2.37;;;;;;;7.19;52.89;101073.63;5017688;28;20207;-80
2023/05/06 03:48:54;;;;;;;6.27;2.40;;;;;;;7.20;52.89;101065.06;5014030;28;20216;-81
2023/05/06 03:51:22;;;;;;;4.27;1.93;;;;;;;7.21;52.81;101064.22;5010249;28;20262;-81
2023/05/06 03:53:52;;;;;;;3.80;2.70;;;;;;;7.19;52.74;101065.06;5020536;28;20657;-79
2023/05/06 03:56:29;;;;;;;5.77;2.70;;;;;;;7.23;53.02;101075.41;5016850;28;20235;-81
2023/05/06 03:58:57;;;;;;;7.83;2.73;;;;;;;7.31;53.07;101072.97;5012786;28;20204;-81
2023/05/06 04:01:28;;;;;;;2.73;2.10;;;;;;;7.32;52.96;101063.56;5024838;28;20587;-82
2023/05/06 04:03:58;;;;;;;3.90;2.20;;;;;;;7.31;52.70;101074.69;5017795;28;20239;-81
2023/05/06 04:06:27;;;;;;;4.13;2.40;;;;;;;7.31;53.16;101067.84;5012732;28;20219;-81
2023/05/06 04:08:58;;;;;;;2.13;2.00;;;;;;;7.31;53.37;101066.97;5004648;28;20211;-80
2023/05/06 04:11:27;;;;;;;3.47;1.87;;;;;;;7.29;53.36;101063.50;5025256;28;20207;-81
2023/05/06 04:13:57;;;;;;;5.30;2.20;;;;;;;7.33;53.05;101065.28;5012204;28;20268;-81
2023/05/06 04:16:26;;;;;;;4.33;2.20;;;;;;;7.32;53.29;101064.44;5020805;28;20257;-81
2023/05/06 04:18:58;;;;;;;2.57;2.10;;;;;;;7.27;53.34;101053.25;5023521;28;20246;-82
2023/05/06 04:21:33;;;;;;;4.87;2.80;;;;;;;7.28;53.98;101057.53;5019627;28;20233;-81
2023/05/06 04:24:06;;;;;;;3.77;2.23;;;;;;;7.34;53.44;101049.97;5018911;28;20199;-80
2023/05/06 04:26:37;;;;;;;4.30;2.30;;;;;;;7.38;53.65;101050.88;5015084;28;20222;-82
2023/05/06 04:29:07;;;;;;;4.43;2.47;;;;;;;7.39;53.40;101050.03;5021364;28;20273;-81
2023/05/06 04:31:37;;;;;;;4.50;2.30;;;;;;;7.36;53.35;101058.53;5022993;28;20200;-80
2023/05/06 04:34:09;;;;;;;3.63;2.50;;;;;;;7.39;53.71;101055.16;5012983;28;20200;-81
2023/05/06 04:36:38;;;;;;;3.70;1.90;;;;;;;7.41;54.06;101063.75;5009545;28;20237;-82
2023/05/06 04:39:09;;;;;;;4.57;2.50;;;;;;;7.39;54.33;101065.41;5013377;28;20709;-81
2023/05/06 04:41:37;;;;;;;3.07;2.53;;;;;;;7.36;54.29;101062.78;5008225;28;20199;-80
2023/05/06 04:44:06;;;;;;;3.80;3.17;;;;;;;7.30;54.49;101058.44;5019203;28;20735;-80
2023/05/06 04:46:36;;;;;;;6.67;2.50;;;;;;;7.29;54.42;101063.50;5017734;28;20214;-81
2023/05/06 04:49:06;;;;;;;6.27;2.40;;;;;;;7.28;54.40;101065.22;5016225;28;20207;-80
2023/05/06 04:51:34;;;;;;;3.67;2.20;;;;;;;7.23;54.88;101062.56;5002524;28;20218;-79
2023/05/06 04:54:03;;;;;;;2.97;2.33;;;;;;;7.29;54.78;101058.38;5017740;28;20199;-80
2023/05/06 04:56:32;;;;;;;4.13;2.50;;;;;;;7.34;55.01;101062.78;5012469;28;20234;-80
2023/05/06 04:59:02;;;;;;;3.37;2.10;;;;;;;7.25;54.77;101049.78;5010197;28;20270;-83
2023/05/06 05:01:31;;;;;;;3.03;2.63;;;;;;;7.41;55.40;101058.63;5026723;28;20222;-81
2023/05/06 05:04:00;;;;;;;6.27;2.30;;;;;;;7.44;55.28;101056.13;5024420;28;20211;-80
2023/05/06 05:06:32;;;;;;;4.30;2.40;;;;;;;7.45;55.17;101051.00;5024543;28;20206;-81
2023/05/06 05:09:14;;;;;;;4.17;2.20;;;;;;;7.51;55.96;101050.22;5024267;28;20600;-80
2023/05/06 05:11:44;;;;;;;2.30;2.10;;;;;;;7.54;55.21;101049.44;5025437;28;20206;-80
2023/05/06 05:14:20;;;;;;;3.03;2.30;;;;;;;7.50;55.26;101039.13;5013256;28;20206;-80
2023/05/06 05:16:52;;;;;;;5.80;2.60;;;;;;;7.56;55.44;101056.31;5023309;28;20241;-81
2023/05/06 05:19:21;;;;;;;2.60;2.40;;;;;;;7.60;55.72;101050.41;5017994;28;20242;-82
2023/05/06 05:21:53;;;;;;;5.50;2.47;;;;;;;7.66;55.57;101055.66;5016151;28;20727;-81
2023/05/06 05:24:23;;;;;;;3.07;2.40;;;;;;;7.72;55.78;101044.59;5019744;28;20215;-82
2023/05/06 05:26:54;;;;;;;4.97;2.37;;;;;;;7.81;55.44;101044.75;5023817;28;20226;-81
2023/05/06 05:29:28;;;;;;;5.10;2.60;;;;;;;7.87;55.03;101044.84;5024181;28;20617;-82
2023/05/06 05:32:00;;;;;;;6.00;2.57;;;;;;;7.89;55.48;101048.31;5031683;28;20237;-80
2023/05/06 05:34:28;;;;;;;3.07;2.57;;;;;;;7.81;55.86;101029.38;5003991;28;20199;-81
2023/05/06 05:37:13;;;;;;;2.77;2.33;;;;;;;7.90;55.58;101044.91;5014883;28;20317;-82
2023/05/06 05:39:42;;;;;;;4.30;3.07;;;;;;;7.90;55.54;101038.91;5019375;28;20213;-81
2023/05/06 05:42:11;;;;;;;2.63;2.30;;;;;;;7.94;56.53;101041.53;5004886;28;20581;-82
2023/05/06 05:44:39;;;;;;;4.57;2.70;;;;;;;7.93;55.93;101034.69;5025069;28;20206;-82
2023/05/06 05:47:12;;;;;;;2.67;2.37;;;;;;;7.98;56.14;101038.16;5016423;28;20207;-80
2023/05/06 05:49:41;;;;;;;5.43;2.63;;;;;;;7.96;56.55;101018.47;5014979;28;20215;-81
2023/05/06 05:52:11;;;;;;;4.73;2.97;;;;;;;8.00;56.13;101025.38;5027892;28;20203;-81
2023/05/06 05:54:40;;;;;;;3.93;2.40;;;;;;;8.12;56.45;101032.38;5019665;28;20286;-79
2023/05/06 05:57:08;;;;;;;3.83;2.77;;;;;;;8.15;55.80;101035.00;5022801;28;20238;-81
2023/05/06 05:59:37;;;;;;;6.37;2.67;;;;;;;8.26;57.00;101020.59;5021833;28;20296;-81
2023/05/06 06:02:06;;;;;;;9.33;2.53;;;;;;;8.38;56.48;101019.94;5024730;28;20219;-82
2023/05/06 06:04:37;;;;;;;6.27;2.90;;;;;;;8.48;56.39;101019.22;5018061;28;20217;-79
2023/05/06 06:07:06;;;;;;;3.80;2.40;;;;;;;8.52;55.62;101020.13;5003288;28;20235;-81
2023/05/06 06:09:45;;;;;;;3.07;2.57;;;;;;;8.48;55.30;101008.94;5017621;28;20243;-80
2023/05/06 06:12:15;;;;;;;4.03;2.87;;;;;;;8.59;55.83;101027.06;5014945;28;20196;-80
2023/05/06 06:14:46;;;;;;;2.60;2.37;;;;;;;8.59;56.49;101002.22;5012071;28;20265;-80
2023/05/06 06:17:16;;;;;;;4.67;2.87;;;;;;;8.73;55.59;101022.06;5015586;28;20234;-80
2023/05/06 06:19:46;;;;;;;3.10;2.53;;;;;;;8.80;55.68;101019.59;5022481;28;20623;-80
2023/05/06 06:22:15;;;;;;;2.50;2.10;;;;;;;8.85;55.36;101014.50;5002424;28;20215;-81
2023/05/06 06:24:45;;;;;;;3.67;1.90;;;;;;;8.98;55.40;101021.50;5019101;28;20216;-80
2023/05/06 06:27:18;;;;;;;5.40;2.97;;;;;;;9.03;54.93;101021.56;5017912;28;20553;-79
2023/05/06 06:29:47;;;;;;;2.87;2.00;;;;;;;9.08;54.05;101025.03;5017935;28;20196;-81
2023/05/06 06:32:19;;;;;;;4.13;2.77;;;;;;;9.08;54.04;101001.91;5017847;28;20203;-81
2023/05/06 06:34:49;;;;;;;2.20;2.00;;;;;;;9.35;53.10;101027.88;5025880;28;20596;-80
2023/05/06 06:37:18;;;;;;;3.07;2.20;;;;;;;9.43;52.79;101010.81;5022494;28;20222;-81
2023/05/06 06:39:48;;;;;;;2.27;1.87;;;;;;;9.55;51.40;101014.31;5013677;28;20204;-79
2023/05/06 06:42:16;;;;;;;3.23;1.97;;;;;;;9.57;51.53;101013.50;5012376;28;20273;-81
2023/05/06 06:44:46;;;;;;;2.53;1.73;;;;;;;9.68;51.44;101022.16;5015036;28;20700;-82
2023/05/06 06:47:16;;;;;;;3.73;1.97;;;;;;;9.72;50.07;101017.00;5013665;28;20200;-81
2023/05/06 06:49:44;;;;;;;4.17;2.00;;;;;;;9.89;49.82;101016.28;5018529;28;20200;-82
2023/05/06 06:52:12;;;;;;;2.00;1.77;;;;;;;10.02;49.47;101019.81;5018955;28;20227;-81
2023/05/06 06:54:41;;;;;;;2.17;1.73;;;;;;;10.08;48.82;101013.84;5012310;28;20266;-81
2023/05/06 06:57:11;;;;;;;2.40;1.67;;;;;;;10.15;49.40;101008.72;5018214;28;20233;-80
2023/05/06 06:59:40;;;;;;;5.53;1.93;;;;;;;10.24;49.11;101012.22;5025523;28;20212;-81
2023/05/06 07:02:08;;;;;;;2.90;1.63;;;;;;;10.36;48.48;101004.59;5007612;28;20212;-80
2023/05/06 07:04:38;;;;;;;1.97;1.77;;;;;;;10.46;47.96;100998.63;5015768;28;20209;-79
2023/05/06 07:07:10;;;;;;;2.27;1.30;;;;;;;10.60;47.27;100999.53;5021976;28;20577;-81
2023/05/06 07:09:52;;;;;;;2.40;1.60;;;;;;;10.62;46.55;100987.50;5019739;28;20342;-81
2023/05/06 07:12:25;;;;;;;1.70;1.20;;;;;;;10.59;46.96;100995.22;5018979;28;20192;-80
2023/05/06 07:14:54;;;;;;;4.37;1.90;;;;;;;10.72;47.29;100990.13;5017962;28;20237;-80
2023/05/06 07:17:23;;;;;;;1.90;1.20;;;;;;;10.72;46.21;100984.97;4997518;28;20214;-81
2023/05/06 07:19:54;;;;;;;2.27;1.40;;;;;;;10.67;46.05;100989.25;5017819;28;20207;-82
2023/05/06 07:22:23;;;;;;;4.23;1.53;;;;;;;10.62;45.72;100989.22;4996989;28;20588;-81
2023/05/06 07:24:58;;;;;;;2.80;1.63;;;;;;;10.55;46.11;100966.88;5005450;28;20461;-79
2023/05/06 07:27:29;;;;;;;2.40;1.70;;;;;;;10.62;45.60;100979.78;4989939;28;20685;-81
2023/05/06 07:29:57;;;;;;;2.40;1.20;;;;;;;10.53;45.64;100984.91;4996981;28;20204;-80
2023/05/06 07:32:25;;;;;;;1.47;1.37;;;;;;;10.43;45.35;100980.56;5004448;28;20610;-81
2023/05/06 07:34:55;;;;;;;2.03;1.43;;;;;;;10.40;45.51;100972.81;5001416;28;20204;-81
2023/05/06 07:37:23;;;;;;;2.03;1.30;;;;;;;10.39;45.71;100973.69;4995908;28;20222;-80
2023/05/06 07:39:52;;;;;;;2.00;1.57;;;;;;;10.35;46.15;100965.09;4999252;28;20291;-82
2023/05/06 07:42:21;;;;;;;1.93;1.70;;;;;;;10.40;45.82;100973.69;4995817;28;20203;-82
2023/05/06 07:44:52;;;;;;;3.33;2.10;;;;;;;10.53;45.36;100979.75;4999659;28;20219;-82
2023/05/06 07:47:28;;;;;;;2.93;1.40;;;;;;;10.59;45.39;100974.59;4998110;28;20630;-82
2023/05/06 07:49:58;;;;;;;1.03;0.93;;;;;;;10.64;44.80;100960.03;4998203;28;20204;-81
2023/05/06 07:52:28;;;;;;;3.83;1.53;;;;;;;10.63;44.65;100966.03;4999208;28;20626;-82
2023/05/06 07:54:57;;;;;;;1.80;1.30;;;;;;;10.68;44.98;100972.91;4998869;28;20242;-81
2023/05/06 07:57:26;;;;;;;4.97;1.90;;;;;;;10.70;44.39;100977.22;5001405;28;20230;-83
2023/05/06 07:59:57;;;;;;;1.47;1.07;;;;;;;10.67;43.52;100958.31;4982024;28;20211;-83
2023/05/06 08:02:26;;;;;;;2.20;1.33;;;;;;;10.69;44.16;100969.50;4994352;28;20223;-82
2023/05/06 08:04:55;;;;;;;1.70;1.60;;;;;;;10.80;43.67;100978.13;5004141;28;20237;-82
2023/05/06 08:07:31;;;;;;;2.10;1.30;;;;;;;10.91;43.21;100970.41;5005311;28;20220;-83
2023/05/06 08:10:01;;;;;;;3.40;1.10;;;;;;;10.91;42.84;100979.00;5001921;28;20210;-82
2023/05/06 08:12:30;;;;;;;2.40;1.40;;;;;;;10.89;42.84;100972.97;5009434;28;20305;-83
2023/05/06 08:15:00;;;;;;;1.07;1.00;;;;;;;10.88;42.70;100968.69;4997837;28;20243;-82
2023/05/06 08:17:30;;;;;;;3.13;1.30;;;;;;;10.86;43.28;100981.56;4998361;28;20287;-83
2023/05/06 08:20:01;;;;;;;1.53;1.13;;;;;;;10.76;42.83;100963.50;5003412;28;20204;-80
2023/05/06 08:22:33;;;;;;;3.53;1.50;;;;;;;10.84;42.49;100980.69;5012747;28;20243;-81
2023/05/06 08:25:03;;;;;;;2.70;1.50;;;;;;;10.82;42.64;100972.09;5020340;28;20207;-81
2023/05/06 08:27:34;;;;;;;1.43;1.13;;;;;;;10.82;42.67;100955.75;5010524;28;20203;-77
2023/05/06 08:30:04;;;;;;;3.57;1.50;;;;;;;10.87;42.61;100975.56;5013424;28;20205;-79
2023/05/06 08:32:32;;;;;;;1.80;1.30;;;;;;;10.94;42.58;100965.25;5013445;28;20670;-80
2023/05/06 08:35:04;;;;;;;2.13;0.93;;;;;;;11.00;42.14;100973.84;5013489;28;20245;-79
2023/05/06 08:37:34;;;;;;;3.13;1.50;;;;;;;11.00;41.69;100971.25;5012925;28;20238;-78
2023/05/06 08:40:04;;;;;;;1.90;1.20;;;;;;;11.01;42.28;100962.69;5013704;28;20575;-79
2023/05/06 08:42:36;;;;;;;1.20;1.00;;;;;;;11.10;41.51;100970.44;5012236;28;20210;-80
2023/05/06 08:45:21;;;;;;;3.13;1.27;;;;;;;11.14;41.49;100968.72;4998213;28;20713;-80
2023/05/06 08:47:50;;;;;;;2.07;1.20;;;;;;;11.11;41.66;100964.41;5005188;28;20230;-79
2023/05/06 08:50:20;;;;;;;4.57;1.17;;;;;;;11.15;41.97;100959.25;5014886;28;20222;-78
2023/05/06 08:52:51;;;;;;;1.20;1.10;;;;;;;11.21;41.78;100967.00;5016631;28;20215;-79
2023/05/06 08:55:24;;;;;;;1.60;1.50;;;;;;;11.24;41.02;100964.44;5010467;28;20215;-79
2023/05/06 08:57:57;;;;;;;1.63;1.20;;;;;;;11.22;40.34;100960.97;5014090;28;20226;-78
2023/05/06 09:00:31;;;;;;;5.43;1.30;;;;;;;11.27;41.12;100961.84;5014140;28;20569;-80
2023/05/06 09:03:01;;;;;;;1.80;1.70;;;;;;;11.32;40.54;100962.72;5024039;28;20219;-78
2023/05/06 09:05:30;;;;;;;2.03;1.17;;;;;;;11.31;40.47;100963.56;5019555;28;20317;-78
2023/05/06 09:07:58;;;;;;;1.50;1.10;;;;;;;11.31;39.85;100967.00;5010297;28;20210;-81
2023/05/06 09:10:31;;;;;;;2.90;1.23;;;;;;;11.25;39.26;100991.94;5006129;28;20642;-79
2023/05/06 09:13:00;;;;;;;4.63;1.30;;;;;;;11.16;39.23;100950.66;5019664;28;20564;-80
2023/05/06 09:15:42;;;;;;;3.40;1.20;;;;;;;11.20;38.87;100978.19;5012117;28;20203;-79
2023/05/06 09:18:11;;;;;;;3.10;1.10;;;;;;;11.19;39.08;100966.13;5013051;28;20277;-79
2023/05/06 09:20:42;;;;;;;5.80;1.20;;;;;;;11.18;38.57;100959.25;5017768;28;20226;-78
2023/05/06 09:23:11;;;;;;;2.40;0.93;;;;;;;11.14;39.00;100973.88;5017177;28;20203;-79
2023/05/06 09:25:39;;;;;;;1.83;0.80;;;;;;;11.15;38.81;100960.09;5006933;28;20720;-79
2023/05/06 09:28:11;;;;;;;7.70;1.40;;;;;;;11.07;39.10;100942.06;5005688;28;20214;-81
2023/05/06 09:30:46;;;;;;;3.47;1.13;;;;;;;11.22;38.40;100959.25;5018455;28;20211;-80
2023/05/06 09:33:17;;;;;;;3.00;1.00;;;;;;;11.23;38.44;100955.84;5006597;28;20226;-81
2023/05/06 09:35:50;;;;;;;2.13;1.27;;;;;;;11.22;38.73;100950.66;5015244;28;20202;-80
2023/05/06 09:38:19;;;;;;;1.00;0.97;;;;;;;11.21;38.67;100933.47;5008183;28;20210;-80
2023/05/06 09:40:50;;;;;;;1.87;1.30;;;;;;;11.22;38.09;100950.66;5009251;28;20230;-79
2023/05/06 09:43:20;;;;;;;5.90;1.17;;;;;;;11.15;38.35;100936.03;5019035;28;20203;-78
2023/05/06 09:45:50;;;;;;;1.13;0.97;;;;;;;11.24;38.56;100944.66;5021838;28;20207;-78
2023/05/06 09:48:29;;;;;;;6.33;1.90;;;;;;;11.24;38.54;100930.91;5027679;28;20205;-78
2023/05/06 09:51:02;;;;;;;1.17;1.03;;;;;;;11.33;38.05;100941.19;5005000;28;20310;-78
2023/05/06 09:53:36;;;;;;;6.60;1.10;;;;;;;11.44;37.71;100943.78;5027485;28;20213;-79
2023/05/06 09:56:10;;;;;;;5.93;1.83;;;;;;;11.45;38.14;100943.78;5033637;28;20665;-80
2023/05/06 09:58:41;;;;;;;3.33;1.50;;;;;;;11.51;37.62;100946.34;5021991;28;20255;-78
2023/05/06 10:01:14;;;;;;;1.00;0.90;;;;;;;11.35;38.14;100916.25;5023062;28;20209;-80
2023/05/06 10:04:06;;;;;;;6.53;1.20;;;;;;;11.46;38.22;100950.66;5017616;28;20207;-79
2023/05/06 10:06:38;;;;;;;5.33;1.17;;;;;;;11.35;38.96;100932.59;5016590;28;20246;-79
2023/05/06 10:09:07;;;;;;;4.23;1.10;;;;;;;11.26;39.83;100929.16;5016293;28;20715;-79
2023/05/06 10:11:38;;;;;;;3.27;1.03;;;;;;;11.23;40.15;100950.69;5023504;28;20253;-78
2023/05/06 10:14:09;;;;;;;2.80;1.20;;;;;;;11.15;39.98;100936.88;5014337;28;20211;-78
2023/05/06 10:16:47;;;;;;;2.83;1.80;;;;;;;11.08;40.68;100930.00;5015511;28;20218;-80
2023/05/06 10:19:23;;;;;;;2.67;1.50;;;;;;;11.06;39.87;100931.75;5016794;28;20222;-80
2023/05/06 10:21:56;;;;;;;3.30;1.60;;;;;;;11.05;40.48;100919.72;5014859;28;20234;-80
2023/05/06 10:24:33;;;;;;;1.70;1.40;;;;;;;11.03;39.89;100924.00;5016307;28;20210;-79
2023/05/06 10:27:06;;;;;;;2.33;1.20;;;;;;;11.02;38.97;100923.16;4988462;28;20234;-81
2023/05/06 10:29:39;;;;;;;1.77;1.20;;;;;;;11.03;39.70;100919.69;5017931;28;20326;-79
2023/05/06 10:32:12;;;;;;;3.37;1.17;;;;;;;11.03;38.75;100909.38;5016002;28;20573;-80
2023/05/06 10:34:52;;;;;;;2.50;1.60;;;;;;;11.05;39.06;100905.09;5018302;28;20572;-81
2023/05/06 10:37:24;;;;;;;4.83;1.47;;;;;;;11.07;38.69;100911.09;4989107;28;20199;-81
2023/05/06 10:39:55;;;;;;;1.77;1.03;;;;;;;11.06;39.16;100900.78;5017746;28;20238;-80
2023/05/06 10:42:27;;;;;;;2.70;1.20;;;;;;;11.05;39.20;100902.53;5026319;28;20209;-79
2023/05/06 10:45:02;;;;;;;1.87;1.30;;;;;;;11.07;39.75;100893.03;5014220;28;20207;-79
2023/05/06 10:48:13;;;;;;;3.23;1.40;;;;;;;11.08;39.62;100910.25;5015352;28;20253;-80
2023/05/06 10:50:42;;;;;;;2.63;1.40;;;;;;;11.04;40.68;100895.63;5013252;28;20222;-77
2023/05/06 10:53:13;;;;;;;2.90;1.10;;;;;;;11.09;40.62;100893.06;5015391;28;20255;-80
2023/05/06 10:55:42;;;;;;;4.30;1.40;;;;;;;11.06;41.15;100901.66;5016614;28;20199;-81
2023/05/06 10:58:14;;;;;;;2.03;1.50;;;;;;;11.10;41.28;100900.78;5013387;28;20286;-79
2023/05/06 11:00:53;;;;;;;4.73;1.67;;;;;;;11.10;42.57;100894.78;5014841;28;20211;-78
2023/05/06 11:03:24;;;;;;;3.53;1.57;;;;;;;11.03;43.16;100878.44;5010996;28;20203;-80
2023/05/06 11:05:53;;;;;;;4.13;1.50;;;;;;;11.13;43.76;100887.91;5014480;28;20627;-79
2023/05/06 11:08:27;;;;;;;6.10;1.60;;;;;;;11.10;43.90;100884.47;5031114;28;20209;-80
2023/05/06 11:10:57;;;;;;;13.53;2.20;;;;;;;11.06;43.80;100877.59;5019662;28;20206;-79
2023/05/06 11:13:29;;;;;;;3.37;1.80;;;;;;;11.09;45.30;100877.59;5028377;28;20210;-80
2023/05/06 11:15:59;;;;;;;3.07;1.73;;;;;;;11.12;44.27;100881.03;5000645;28;20219;-81
2023/05/06 11:18:46;;;;;;;3.57;1.77;;;;;;;11.10;44.58;100875.00;5020800;28;20183;-79
2023/05/06 11:21:41;;;;;;;5.87;1.37;;;;;;;11.14;44.08;100888.75;5016248;28;20235;-78
2023/05/06 11:24:14;;;;;;;3.03;1.50;;;;;;;11.10;42.96;100884.47;5016002;28;20203;-80
2023/05/06 11:26:44;;;;;;;3.33;1.80;;;;;;;11.07;42.27;100882.72;5019295;28;20249;-82
2023/05/06 11:29:17;;;;;;;3.53;1.40;;;;;;;11.10;42.71;100877.56;5024012;28;20297;-81
2023/05/06 11:31:46;;;;;;;3.70;1.80;;;;;;;11.10;42.08;100874.13;5015999;28;20206;-80
2023/05/06 11:34:22;;;;;;;5.70;1.70;;;;;;;11.07;41.63;100887.88;5015703;28;20235;-81
2023/05/06 11:36:59;;;;;;;7.77;1.83;;;;;;;11.03;42.67;100872.41;5011690;28;20209;-79
2023/05/06 11:39:30;;;;;;;1.83;1.20;;;;;;;11.12;42.07;100888.75;5014228;28;20317;-80
2023/05/06 11:42:07;;;;;;;5.90;2.07;;;;;;;11.13;42.51;100893.06;5015150;28;20207;-81
2023/05/06 11:44:37;;;;;;;2.30;1.40;;;;;;;11.01;42.81;100874.13;5014934;28;20306;-82
2023/05/06 11:47:08;;;;;;;2.27;1.70;;;;;;;11.03;43.59;100878.44;5018003;28;20596;-81
2023/05/06 11:49:43;;;;;;;3.50;1.53;;;;;;;11.03;43.72;100883.59;5018015;28;20630;-81